Terminal Aerodrome Forecast
Issued by NWS Sterling, VA

Home | Current Version | Previous Version | Text Only | Print | Product List | Glossary On
Versions: 1 2 3 4 5 6 7 8 9 10 11 12 13 14 15 16 17 18 19 20 21 22 23
678
FTUS41 KLWX 271449 AAA
TAFBWI
TAF AMD
KBWI 271449Z 2715/2818 VRB03KT P6SM BKN060
     FM271530 18004KT 4SM -SHRA OVC050
     FM271900 09004KT P6SM BKN050
     FM280300 04005KT P6SM BKN025
     FM280500 04004KT P6SM OVC015
     FM281200 VRB03KT P6SM OVC025
     FM281400 09005KT P6SM BKN035=

USA.gov is the U.S. government's official web portal to all federal, state and local government web resources and services.